sensor_id;sensor_type;location;lat;lon;timestamp;temperature;humidity
42095;DHT22;27753;55.724;37.612;2024-02-04T00:00:35;-0.10;99.90
42095;DHT22;27753;55.724;37.612;2024-02-04T00:03:02;-0.20;99.90
42095;DHT22;27753;55.724;37.612;2024-02-04T00:05:28;-0.20;99.90
42095;DHT22;27753;55.724;37.612;2024-02-04T00:07:54;-0.30;99.90
42095;DHT22;27753;55.724;37.612;2024-02-04T00:10:20;-0.30;99.90
42095;DHT22;27753;55.724;37.612;2024-02-04T00:12:46;-0.40;99.90
42095;DHT22;27753;55.724;37.612;2024-02-04T00:15:12;-0.40;99.90
42095;DHT22;27753;55.724;37.612;2024-02-04T00:17:37;-0.30;99.90
42095;DHT22;27753;55.724;37.612;2024-02-04T00:20:04;-0.30;99.90
42095;DHT22;27753;55.724;37.612;2024-02-04T00:22:31;-0.40;99.90
42095;DHT22;27753;55.724;37.612;2024-02-04T00:24:57;-0.40;99.90
42095;DHT22;27753;55.724;37.612;2024-02-04T00:27:27;-0.40;99.90
42095;DHT22;27753;55.724;37.612;2024-02-04T00:29:53;-0.50;99.90
42095;DHT22;27753;55.724;37.612;2024-02-04T00:32:18;-0.40;99.90
42095;DHT22;27753;55.724;37.612;2024-02-04T00:34:44;-0.40;99.90
42095;DHT22;27753;55.724;37.612;2024-02-04T00:37:10;-0.30;99.90
42095;DHT22;27753;55.724;37.612;2024-02-04T00:39:36;-0.30;99.90
42095;DHT22;27753;55.724;37.612;2024-02-04T00:42:02;-0.30;99.90
42095;DHT22;27753;55.724;37.612;2024-02-04T00:44:27;-0.30;99.90
42095;DHT22;27753;55.724;37.612;2024-02-04T00:46:53;-0.20;99.90
42095;DHT22;27753;55.724;37.612;2024-02-04T00:49:19;-0.10;99.90
42095;DHT22;27753;55.724;37.612;2024-02-04T00:51:45;-0.10;99.90
42095;DHT22;27753;55.724;37.612;2024-02-04T00:54:11;-0.10;99.90
42095;DHT22;27753;55.724;37.612;2024-02-04T00:56:36;0.00;99.90
42095;DHT22;27753;55.724;37.612;2024-02-04T00:59:03;0.00;99.90
42095;DHT22;27753;55.724;37.612;2024-02-04T01:01:29;0.00;99.90
42095;DHT22;27753;55.724;37.612;2024-02-04T01:03:55;0.10;99.90
42095;DHT22;27753;55.724;37.612;2024-02-04T01:06:21;0.00;99.90
42095;DHT22;27753;55.724;37.612;2024-02-04T01:08:46;0.10;99.90
42095;DHT22;27753;55.724;37.612;2024-02-04T01:11:12;0.10;99.90
42095;DHT22;27753;55.724;37.612;2024-02-04T01:13:38;0.20;99.90
42095;DHT22;27753;55.724;37.612;2024-02-04T01:16:04;0.20;99.90
42095;DHT22;27753;55.724;37.612;2024-02-04T01:18:30;0.20;99.90
42095;DHT22;27753;55.724;37.612;2024-02-04T01:20:57;0.30;99.90
42095;DHT22;27753;55.724;37.612;2024-02-04T01:23:23;0.30;99.90
42095;DHT22;27753;55.724;37.612;2024-02-04T01:25:49;0.30;99.90
42095;DHT22;27753;55.724;37.612;2024-02-04T01:28:15;0.30;99.90
42095;DHT22;27753;55.724;37.612;2024-02-04T01:30:41;0.30;99.90
42095;DHT22;27753;55.724;37.612;2024-02-04T01:33:07;0.30;99.90
42095;DHT22;27753;55.724;37.612;2024-02-04T01:35:32;0.30;99.90
42095;DHT22;27753;55.724;37.612;2024-02-04T01:37:58;0.30;99.90
42095;DHT22;27753;55.724;37.612;2024-02-04T01:40:24;0.30;99.90
42095;DHT22;27753;55.724;37.612;2024-02-04T01:42:50;0.30;99.90
42095;DHT22;27753;55.724;37.612;2024-02-04T01:45:16;0.30;99.90
42095;DHT22;27753;55.724;37.612;2024-02-04T01:47:41;0.30;99.90
42095;DHT22;27753;55.724;37.612;2024-02-04T01:50:08;0.30;99.90
42095;DHT22;27753;55.724;37.612;2024-02-04T01:52:37;0.30;99.90
42095;DHT22;27753;55.724;37.612;2024-02-04T01:55:04;0.40;99.90
42095;DHT22;27753;55.724;37.612;2024-02-04T01:57:31;0.40;99.90
42095;DHT22;27753;55.724;37.612;2024-02-04T01:59:57;0.40;99.90
42095;DHT22;27753;55.724;37.612;2024-02-04T02:02:25;0.40;99.90
42095;DHT22;27753;55.724;37.612;2024-02-04T02:04:51;0.40;99.90
42095;DHT22;27753;55.724;37.612;2024-02-04T02:07:21;0.40;99.90
42095;DHT22;27753;55.724;37.612;2024-02-04T02:09:47;0.40;99.90
42095;DHT22;27753;55.724;37.612;2024-02-04T02:12:29;0.40;99.90
42095;DHT22;27753;55.724;37.612;2024-02-04T02:15:07;0.40;99.90
42095;DHT22;27753;55.724;37.612;2024-02-04T02:17:47;0.40;99.90
42095;DHT22;27753;55.724;37.612;2024-02-04T02:23:22;0.40;99.90
42095;DHT22;27753;55.724;37.612;2024-02-04T02:25:55;0.40;99.90
42095;DHT22;27753;55.724;37.612;2024-02-04T02:28:21;0.40;99.90
42095;DHT22;27753;55.724;37.612;2024-02-04T02:30:47;0.40;99.90
42095;DHT22;27753;55.724;37.612;2024-02-04T02:33:13;0.40;99.90
42095;DHT22;27753;55.724;37.612;2024-02-04T02:35:39;0.40;99.90
42095;DHT22;27753;55.724;37.612;2024-02-04T02:38:25;0.40;99.90
42095;DHT22;27753;55.724;37.612;2024-02-04T02:40:57;0.50;99.90
42095;DHT22;27753;55.724;37.612;2024-02-04T02:43:24;0.50;99.90
42095;DHT22;27753;55.724;37.612;2024-02-04T02:45:51;0.50;99.90
42095;DHT22;27753;55.724;37.612;2024-02-04T02:48:17;0.50;99.90
42095;DHT22;27753;55.724;37.612;2024-02-04T02:50:44;0.50;99.90
42095;DHT22;27753;55.724;37.612;2024-02-04T02:53:10;0.50;99.90
42095;DHT22;27753;55.724;37.612;2024-02-04T02:55:35;0.60;99.90
42095;DHT22;27753;55.724;37.612;2024-02-04T02:58:01;0.60;99.90
42095;DHT22;27753;55.724;37.612;2024-02-04T03:00:27;0.60;99.90
42095;DHT22;27753;55.724;37.612;2024-02-04T03:02:53;0.70;99.90
42095;DHT22;27753;55.724;37.612;2024-02-04T03:05:19;0.70;99.90
42095;DHT22;27753;55.724;37.612;2024-02-04T03:07:45;0.70;99.90
42095;DHT22;27753;55.724;37.612;2024-02-04T03:10:10;0.70;99.90
42095;DHT22;27753;55.724;37.612;2024-02-04T03:12:36;0.70;99.90
42095;DHT22;27753;55.724;37.612;2024-02-04T03:15:02;0.70;99.90
42095;DHT22;27753;55.724;37.612;2024-02-04T03:17:28;0.70;99.90
42095;DHT22;27753;55.724;37.612;2024-02-04T03:19:54;0.70;99.90
42095;DHT22;27753;55.724;37.612;2024-02-04T03:22:20;0.80;99.90
42095;DHT22;27753;55.724;37.612;2024-02-04T03:24:49;0.80;99.90
42095;DHT22;27753;55.724;37.612;2024-02-04T03:27:17;0.80;99.90
42095;DHT22;27753;55.724;37.612;2024-02-04T03:29:43;0.90;99.90
42095;DHT22;27753;55.724;37.612;2024-02-04T03:32:10;0.90;99.90
42095;DHT22;27753;55.724;37.612;2024-02-04T03:34:36;1.00;99.90
42095;DHT22;27753;55.724;37.612;2024-02-04T03:37:02;1.00;99.90
42095;DHT22;27753;55.724;37.612;2024-02-04T03:39:28;1.00;99.90
42095;DHT22;27753;55.724;37.612;2024-02-04T03:41:54;1.10;99.90
42095;DHT22;27753;55.724;37.612;2024-02-04T03:44:20;1.10;99.90
42095;DHT22;27753;55.724;37.612;2024-02-04T03:46:51;1.20;99.90
42095;DHT22;27753;55.724;37.612;2024-02-04T03:49:17;1.20;99.90
42095;DHT22;27753;55.724;37.612;2024-02-04T03:51:43;1.20;99.90
42095;DHT22;27753;55.724;37.612;2024-02-04T03:54:09;1.30;99.90
42095;DHT22;27753;55.724;37.612;2024-02-04T03:56:35;1.30;99.90
42095;DHT22;27753;55.724;37.612;2024-02-04T03:59:01;1.30;99.90
42095;DHT22;27753;55.724;37.612;2024-02-04T04:01:27;1.40;99.90
42095;DHT22;27753;55.724;37.612;2024-02-04T04:03:53;1.30;99.90
42095;DHT22;27753;55.724;37.612;2024-02-04T04:06:18;1.30;99.90
42095;DHT22;27753;55.724;37.612;2024-02-04T04:08:44;1.30;99.90
42095;DHT22;27753;55.724;37.612;2024-02-04T04:11:10;1.30;99.90
42095;DHT22;27753;55.724;37.612;2024-02-04T04:13:37;1.30;99.90
42095;DHT22;27753;55.724;37.612;2024-02-04T04:16:04;1.30;99.90
42095;DHT22;27753;55.724;37.612;2024-02-04T04:18:30;1.30;99.90
42095;DHT22;27753;55.724;37.612;2024-02-04T04:20:56;1.40;99.90
42095;DHT22;27753;55.724;37.612;2024-02-04T04:23:22;1.40;99.90
42095;DHT22;27753;55.724;37.612;2024-02-04T04:25:48;1.40;99.90
42095;DHT22;27753;55.724;37.612;2024-02-04T04:28:13;1.50;99.90
42095;DHT22;27753;55.724;37.612;2024-02-04T04:30:41;1.50;99.90
42095;DHT22;27753;55.724;37.612;2024-02-04T04:52:39;1.50;99.90
42095;DHT22;27753;55.724;37.612;2024-02-04T04:55:05;1.40;99.90
42095;DHT22;27753;55.724;37.612;2024-02-04T04:57:31;1.40;99.90
42095;DHT22;27753;55.724;37.612;2024-02-04T04:59:56;1.40;99.90
42095;DHT22;27753;55.724;37.612;2024-02-04T05:02:26;1.50;99.90
42095;DHT22;27753;55.724;37.612;2024-02-04T05:04:51;1.50;99.90
42095;DHT22;27753;55.724;37.612;2024-02-04T05:07:17;1.50;99.90
42095;DHT22;27753;55.724;37.612;2024-02-04T05:09:43;1.60;99.90
42095;DHT22;27753;55.724;37.612;2024-02-04T05:12:10;1.50;99.90
42095;DHT22;27753;55.724;37.612;2024-02-04T05:14:36;1.60;99.90
42095;DHT22;27753;55.724;37.612;2024-02-04T05:17:03;1.60;99.90
42095;DHT22;27753;55.724;37.612;2024-02-04T05:19:29;1.60;99.90
42095;DHT22;27753;55.724;37.612;2024-02-04T05:21:54;1.60;99.90
42095;DHT22;27753;55.724;37.612;2024-02-04T05:24:20;1.60;99.90
42095;DHT22;27753;55.724;37.612;2024-02-04T05:26:46;1.60;99.90
42095;DHT22;27753;55.724;37.612;2024-02-04T05:29:12;1.60;99.90
42095;DHT22;27753;55.724;37.612;2024-02-04T05:31:42;1.60;99.90
42095;DHT22;27753;55.724;37.612;2024-02-04T05:34:08;1.60;99.90
42095;DHT22;27753;55.724;37.612;2024-02-04T05:36:34;1.60;99.90
42095;DHT22;27753;55.724;37.612;2024-02-04T05:39:15;1.60;99.90
42095;DHT22;27753;55.724;37.612;2024-02-04T05:41:41;1.70;99.90
42095;DHT22;27753;55.724;37.612;2024-02-04T05:44:08;1.70;99.90
42095;DHT22;27753;55.724;37.612;2024-02-04T05:46:38;1.60;99.90
42095;DHT22;27753;55.724;37.612;2024-02-04T05:49:04;1.60;99.90
42095;DHT22;27753;55.724;37.612;2024-02-04T05:51:38;1.60;99.90
42095;DHT22;27753;55.724;37.612;2024-02-04T05:54:05;1.70;99.90
42095;DHT22;27753;55.724;37.612;2024-02-04T05:56:31;1.70;99.90
42095;DHT22;27753;55.724;37.612;2024-02-04T05:58:57;1.60;99.90
42095;DHT22;27753;55.724;37.612;2024-02-04T06:01:22;1.60;99.90
42095;DHT22;27753;55.724;37.612;2024-02-04T06:03:48;1.60;99.90
42095;DHT22;27753;55.724;37.612;2024-02-04T06:06:15;1.70;99.90
42095;DHT22;27753;55.724;37.612;2024-02-04T06:08:42;1.60;99.90
42095;DHT22;27753;55.724;37.612;2024-02-04T06:11:11;1.70;99.90
42095;DHT22;27753;55.724;37.612;2024-02-04T06:13:42;1.70;99.90
42095;DHT22;27753;55.724;37.612;2024-02-04T06:16:08;1.70;99.90
42095;DHT22;27753;55.724;37.612;2024-02-04T06:18:35;1.60;99.90
42095;DHT22;27753;55.724;37.612;2024-02-04T06:21:04;1.60;99.90
42095;DHT22;27753;55.724;37.612;2024-02-04T06:23:30;1.60;99.90
42095;DHT22;27753;55.724;37.612;2024-02-04T06:25:56;1.60;99.90
42095;DHT22;27753;55.724;37.612;2024-02-04T06:28:22;1.60;99.90
42095;DHT22;27753;55.724;37.612;2024-02-04T06:30:49;1.60;99.90
42095;DHT22;27753;55.724;37.612;2024-02-04T06:33:15;1.50;99.90
42095;DHT22;27753;55.724;37.612;2024-02-04T06:35:41;1.50;99.90
42095;DHT22;27753;55.724;37.612;2024-02-04T06:38:06;1.40;99.90
42095;DHT22;27753;55.724;37.612;2024-02-04T06:40:33;1.40;99.90
42095;DHT22;27753;55.724;37.612;2024-02-04T06:42:59;1.40;99.90
42095;DHT22;27753;55.724;37.612;2024-02-04T06:45:25;1.50;99.90
42095;DHT22;27753;55.724;37.612;2024-02-04T06:47:51;1.40;99.90
42095;DHT22;27753;55.724;37.612;2024-02-04T06:50:17;1.40;99.90
42095;DHT22;27753;55.724;37.612;2024-02-04T06:52:43;1.40;99.90
42095;DHT22;27753;55.724;37.612;2024-02-04T06:55:09;1.40;99.90
42095;DHT22;27753;55.724;37.612;2024-02-04T06:57:35;1.30;99.90
42095;DHT22;27753;55.724;37.612;2024-02-04T07:00:01;1.30;99.90
42095;DHT22;27753;55.724;37.612;2024-02-04T07:02:31;1.30;99.90
42095;DHT22;27753;55.724;37.612;2024-02-04T07:04:57;1.30;99.90
42095;DHT22;27753;55.724;37.612;2024-02-04T07:07:23;1.30;99.90
42095;DHT22;27753;55.724;37.612;2024-02-04T07:09:49;1.40;99.90
42095;DHT22;27753;55.724;37.612;2024-02-04T07:12:14;1.40;99.90
42095;DHT22;27753;55.724;37.612;2024-02-04T07:14:40;1.40;99.90
42095;DHT22;27753;55.724;37.612;2024-02-04T07:17:06;1.40;99.90
42095;DHT22;27753;55.724;37.612;2024-02-04T07:19:32;1.30;99.90
42095;DHT22;27753;55.724;37.612;2024-02-04T07:21:58;1.20;99.90
42095;DHT22;27753;55.724;37.612;2024-02-04T07:24:24;1.20;99.90
42095;DHT22;27753;55.724;37.612;2024-02-04T07:26:53;1.10;99.90
42095;DHT22;27753;55.724;37.612;2024-02-04T07:29:19;1.00;99.90
42095;DHT22;27753;55.724;37.612;2024-02-04T07:31:45;1.10;99.90
42095;DHT22;27753;55.724;37.612;2024-02-04T07:34:10;1.10;99.90
42095;DHT22;27753;55.724;37.612;2024-02-04T07:36:36;1.20;99.90
42095;DHT22;27753;55.724;37.612;2024-02-04T07:39:02;1.20;99.90
42095;DHT22;27753;55.724;37.612;2024-02-04T07:41:30;1.20;99.90
42095;DHT22;27753;55.724;37.612;2024-02-04T07:43:57;1.10;99.90
42095;DHT22;27753;55.724;37.612;2024-02-04T07:46:23;1.10;99.90
42095;DHT22;27753;55.724;37.612;2024-02-04T07:48:49;1.10;99.90
42095;DHT22;27753;55.724;37.612;2024-02-04T07:51:14;1.10;99.90
42095;DHT22;27753;55.724;37.612;2024-02-04T07:53:40;1.10;99.90
42095;DHT22;27753;55.724;37.612;2024-02-04T07:56:07;1.10;99.90
42095;DHT22;27753;55.724;37.612;2024-02-04T07:58:33;1.10;99.90
42095;DHT22;27753;55.724;37.612;2024-02-04T08:00:59;1.10;99.90
42095;DHT22;27753;55.724;37.612;2024-02-04T08:03:25;1.10;99.90
42095;DHT22;27753;55.724;37.612;2024-02-04T08:05:51;1.20;99.90
42095;DHT22;27753;55.724;37.612;2024-02-04T08:08:16;1.20;99.90
42095;DHT22;27753;55.724;37.612;2024-02-04T08:10:42;1.20;99.90
42095;DHT22;27753;55.724;37.612;2024-02-04T08:13:08;1.20;99.90
42095;DHT22;27753;55.724;37.612;2024-02-04T08:15:34;1.20;99.90
42095;DHT22;27753;55.724;37.612;2024-02-04T08:18:00;1.20;99.90
42095;DHT22;27753;55.724;37.612;2024-02-04T08:20:26;1.30;99.90
42095;DHT22;27753;55.724;37.612;2024-02-04T08:22:52;1.20;99.90
42095;DHT22;27753;55.724;37.612;2024-02-04T08:25:18;1.20;99.90
42095;DHT22;27753;55.724;37.612;2024-02-04T08:27:44;1.20;99.90
42095;DHT22;27753;55.724;37.612;2024-02-04T08:30:10;1.30;99.90
42095;DHT22;27753;55.724;37.612;2024-02-04T08:32:37;1.30;99.90
42095;DHT22;27753;55.724;37.612;2024-02-04T08:35:04;1.30;99.90
42095;DHT22;27753;55.724;37.612;2024-02-04T08:37:34;1.40;99.90
42095;DHT22;27753;55.724;37.612;2024-02-04T08:40:01;1.40;99.90
42095;DHT22;27753;55.724;37.612;2024-02-04T08:42:28;1.30;99.90
42095;DHT22;27753;55.724;37.612;2024-02-04T08:44:54;1.30;99.90
42095;DHT22;27753;55.724;37.612;2024-02-04T08:47:24;1.30;99.90
42095;DHT22;27753;55.724;37.612;2024-02-04T08:49:50;1.30;99.90
42095;DHT22;27753;55.724;37.612;2024-02-04T08:52:16;1.30;99.90
42095;DHT22;27753;55.724;37.612;2024-02-04T08:54:42;1.20;99.90
42095;DHT22;27753;55.724;37.612;2024-02-04T08:57:08;1.30;99.90
42095;DHT22;27753;55.724;37.612;2024-02-04T08:59:34;1.30;99.90
42095;DHT22;27753;55.724;37.612;2024-02-04T09:02:00;1.40;99.90
42095;DHT22;27753;55.724;37.612;2024-02-04T09:04:26;1.40;99.90
42095;DHT22;27753;55.724;37.612;2024-02-04T09:06:52;1.50;99.90
42095;DHT22;27753;55.724;37.612;2024-02-04T09:09:18;1.60;99.90
42095;DHT22;27753;55.724;37.612;2024-02-04T09:11:43;1.60;99.90
42095;DHT22;27753;55.724;37.612;2024-02-04T09:14:10;1.50;99.90
42095;DHT22;27753;55.724;37.612;2024-02-04T09:16:38;1.50;99.90
42095;DHT22;27753;55.724;37.612;2024-02-04T09:19:05;1.50;99.90
42095;DHT22;27753;55.724;37.612;2024-02-04T09:21:31;1.50;99.90
42095;DHT22;27753;55.724;37.612;2024-02-04T09:23:57;1.40;99.90
42095;DHT22;27753;55.724;37.612;2024-02-04T09:26:23;1.40;99.90
42095;DHT22;27753;55.724;37.612;2024-02-04T09:28:49;1.30;99.90
42095;DHT22;27753;55.724;37.612;2024-02-04T09:31:15;1.30;99.90
42095;DHT22;27753;55.724;37.612;2024-02-04T09:33:41;1.30;99.90
42095;DHT22;27753;55.724;37.612;2024-02-04T09:36:07;1.30;99.90
42095;DHT22;27753;55.724;37.612;2024-02-04T09:38:33;1.40;99.90
42095;DHT22;27753;55.724;37.612;2024-02-04T09:41:00;1.30;99.90
42095;DHT22;27753;55.724;37.612;2024-02-04T09:43:32;1.10;99.90
42095;DHT22;27753;55.724;37.612;2024-02-04T09:45:59;1.00;99.90
42095;DHT22;27753;55.724;37.612;2024-02-04T09:48:29;1.00;99.90
42095;DHT22;27753;55.724;37.612;2024-02-04T09:50:57;1.20;99.90
42095;DHT22;27753;55.724;37.612;2024-02-04T09:53:33;1.40;99.90
42095;DHT22;27753;55.724;37.612;2024-02-04T09:56:02;1.40;99.90
42095;DHT22;27753;55.724;37.612;2024-02-04T09:58:28;1.40;99.90
42095;DHT22;27753;55.724;37.612;2024-02-04T10:00:54;1.30;99.90
42095;DHT22;27753;55.724;37.612;2024-02-04T10:03:20;1.20;99.90
42095;DHT22;27753;55.724;37.612;2024-02-04T10:05:47;1.10;99.90
42095;DHT22;27753;55.724;37.612;2024-02-04T10:08:14;1.20;99.90
42095;DHT22;27753;55.724;37.612;2024-02-04T10:10:40;1.20;99.90
42095;DHT22;27753;55.724;37.612;2024-02-04T10:13:10;1.20;99.90
42095;DHT22;27753;55.724;37.612;2024-02-04T10:15:36;1.20;99.90
42095;DHT22;27753;55.724;37.612;2024-02-04T10:18:08;1.30;99.90
42095;DHT22;27753;55.724;37.612;2024-02-04T10:20:34;1.30;99.90
42095;DHT22;27753;55.724;37.612;2024-02-04T10:23:00;1.30;99.90
42095;DHT22;27753;55.724;37.612;2024-02-04T10:25:26;1.30;99.90
42095;DHT22;27753;55.724;37.612;2024-02-04T10:27:53;1.30;99.90
42095;DHT22;27753;55.724;37.612;2024-02-04T10:30:20;1.40;99.90
42095;DHT22;27753;55.724;37.612;2024-02-04T10:32:55;1.30;99.90
42095;DHT22;27753;55.724;37.612;2024-02-04T10:35:24;1.40;99.90
42095;DHT22;27753;55.724;37.612;2024-02-04T10:37:50;1.50;99.90
42095;DHT22;27753;55.724;37.612;2024-02-04T10:40:17;1.60;99.90
42095;DHT22;27753;55.724;37.612;2024-02-04T10:42:43;1.70;99.90
42095;DHT22;27753;55.724;37.612;2024-02-04T10:45:10;1.70;99.90
42095;DHT22;27753;55.724;37.612;2024-02-04T10:47:38;1.60;99.90
42095;DHT22;27753;55.724;37.612;2024-02-04T10:50:04;1.60;99.90
42095;DHT22;27753;55.724;37.612;2024-02-04T10:52:38;1.70;99.90
42095;DHT22;27753;55.724;37.612;2024-02-04T10:55:08;1.70;99.90
42095;DHT22;27753;55.724;37.612;2024-02-04T10:57:38;1.70;99.90
42095;DHT22;27753;55.724;37.612;2024-02-04T11:00:06;1.70;99.90
42095;DHT22;27753;55.724;37.612;2024-02-04T11:02:36;1.70;99.90
42095;DHT22;27753;55.724;37.612;2024-02-04T11:05:07;1.70;99.90
42095;DHT22;27753;55.724;37.612;2024-02-04T11:07:34;1.80;99.90
42095;DHT22;27753;55.724;37.612;2024-02-04T11:10:01;1.90;99.90
42095;DHT22;27753;55.724;37.612;2024-02-04T11:12:29;2.00;99.90
42095;DHT22;27753;55.724;37.612;2024-02-04T11:15:00;1.90;99.90
42095;DHT22;27753;55.724;37.612;2024-02-04T11:17:33;1.90;99.90
42095;DHT22;27753;55.724;37.612;2024-02-04T11:25:32;2.10;99.90
42095;DHT22;27753;55.724;37.612;2024-02-04T11:28:03;2.10;99.90
42095;DHT22;27753;55.724;37.612;2024-02-04T11:30:33;2.20;99.90
42095;DHT22;27753;55.724;37.612;2024-02-04T11:33:06;2.30;99.90
42095;DHT22;27753;55.724;37.612;2024-02-04T11:35:36;2.30;99.90
42095;DHT22;27753;55.724;37.612;2024-02-04T11:38:05;2.40;99.90
42095;DHT22;27753;55.724;37.612;2024-02-04T11:40:34;2.40;99.90
42095;DHT22;27753;55.724;37.612;2024-02-04T11:43:07;2.50;99.90
42095;DHT22;27753;55.724;37.612;2024-02-04T11:45:43;2.50;99.90
42095;DHT22;27753;55.724;37.612;2024-02-04T11:48:10;2.60;99.90
42095;DHT22;27753;55.724;37.612;2024-02-04T11:50:37;2.60;99.90
42095;DHT22;27753;55.724;37.612;2024-02-04T11:53:10;2.70;99.90
42095;DHT22;27753;55.724;37.612;2024-02-04T11:55:39;2.90;99.90
42095;DHT22;27753;55.724;37.612;2024-02-04T11:58:05;3.00;99.90
42095;DHT22;27753;55.724;37.612;2024-02-04T12:00:33;2.90;99.90
42095;DHT22;27753;55.724;37.612;2024-02-04T12:03:08;2.90;99.90
42095;DHT22;27753;55.724;37.612;2024-02-04T12:05:35;2.90;99.90
42095;DHT22;27753;55.724;37.612;2024-02-04T12:08:05;2.70;99.90
42095;DHT22;27753;55.724;37.612;2024-02-04T12:10:33;2.50;99.90
42095;DHT22;27753;55.724;37.612;2024-02-04T12:13:07;2.40;99.90
42095;DHT22;27753;55.724;37.612;2024-02-04T12:15:36;2.30;99.90
42095;DHT22;27753;55.724;37.612;2024-02-04T12:18:09;2.20;99.90
42095;DHT22;27753;55.724;37.612;2024-02-04T12:20:36;2.20;99.90
42095;DHT22;27753;55.724;37.612;2024-02-04T12:23:04;2.00;99.90
42095;DHT22;27753;55.724;37.612;2024-02-04T12:25:30;2.00;99.90
42095;DHT22;27753;55.724;37.612;2024-02-04T12:28:01;2.00;99.90
42095;DHT22;27753;55.724;37.612;2024-02-04T12:30:28;2.00;99.90
42095;DHT22;27753;55.724;37.612;2024-02-04T12:32:58;2.00;99.90
42095;DHT22;27753;55.724;37.612;2024-02-04T12:35:27;2.00;99.90
42095;DHT22;27753;55.724;37.612;2024-02-04T12:37:55;2.10;99.90
42095;DHT22;27753;55.724;37.612;2024-02-04T12:40:28;2.20;99.90
42095;DHT22;27753;55.724;37.612;2024-02-04T12:42:57;2.20;99.90
42095;DHT22;27753;55.724;37.612;2024-02-04T12:45:24;2.20;99.90
42095;DHT22;27753;55.724;37.612;2024-02-04T12:47:53;2.30;99.90
42095;DHT22;27753;55.724;37.612;2024-02-04T12:50:20;2.30;99.90
42095;DHT22;27753;55.724;37.612;2024-02-04T12:52:47;2.30;99.90
42095;DHT22;27753;55.724;37.612;2024-02-04T12:55:24;2.20;99.90
42095;DHT22;27753;55.724;37.612;2024-02-04T12:58:05;2.20;99.90
42095;DHT22;27753;55.724;37.612;2024-02-04T13:00:35;2.00;99.90
42095;DHT22;27753;55.724;37.612;2024-02-04T13:03:02;2.00;99.90
42095;DHT22;27753;55.724;37.612;2024-02-04T13:05:28;2.00;99.90
42095;DHT22;27753;55.724;37.612;2024-02-04T13:07:58;1.90;99.90
42095;DHT22;27753;55.724;37.612;2024-02-04T13:10:25;1.90;99.90
42095;DHT22;27753;55.724;37.612;2024-02-04T13:13:08;1.90;99.90
42095;DHT22;27753;55.724;37.612;2024-02-04T13:15:38;1.80;99.90
42095;DHT22;27753;55.724;37.612;2024-02-04T13:18:04;1.70;99.90
42095;DHT22;27753;55.724;37.612;2024-02-04T13:20:30;1.70;99.90
42095;DHT22;27753;55.724;37.612;2024-02-04T13:22:56;1.60;99.90
42095;DHT22;27753;55.724;37.612;2024-02-04T13:25:23;1.70;99.90
42095;DHT22;27753;55.724;37.612;2024-02-04T13:27:49;1.70;99.90
42095;DHT22;27753;55.724;37.612;2024-02-04T13:30:16;1.90;99.90
42095;DHT22;27753;55.724;37.612;2024-02-04T13:32:42;1.90;99.90
42095;DHT22;27753;55.724;37.612;2024-02-04T13:35:09;2.00;99.90
42095;DHT22;27753;55.724;37.612;2024-02-04T13:37:43;2.00;99.90
42095;DHT22;27753;55.724;37.612;2024-02-04T13:40:19;2.10;99.90
42095;DHT22;27753;55.724;37.612;2024-02-04T13:42:46;2.00;99.90
42095;DHT22;27753;55.724;37.612;2024-02-04T13:45:12;2.00;99.90
42095;DHT22;27753;55.724;37.612;2024-02-04T13:47:44;2.00;99.90
42095;DHT22;27753;55.724;37.612;2024-02-04T13:50:10;2.00;99.90
42095;DHT22;27753;55.724;37.612;2024-02-04T13:52:37;1.90;99.90
42095;DHT22;27753;55.724;37.612;2024-02-04T13:55:04;2.00;99.90
42095;DHT22;27753;55.724;37.612;2024-02-04T13:57:31;2.00;99.90
42095;DHT22;27753;55.724;37.612;2024-02-04T13:59:57;2.10;99.90
42095;DHT22;27753;55.724;37.612;2024-02-04T14:02:23;2.10;99.90
42095;DHT22;27753;55.724;37.612;2024-02-04T14:04:52;2.10;99.90
42095;DHT22;27753;55.724;37.612;2024-02-04T14:07:18;2.00;99.90
42095;DHT22;27753;55.724;37.612;2024-02-04T14:09:44;1.80;99.90
42095;DHT22;27753;55.724;37.612;2024-02-04T14:12:10;1.70;99.90
42095;DHT22;27753;55.724;37.612;2024-02-04T14:14:37;1.70;99.90
42095;DHT22;27753;55.724;37.612;2024-02-04T14:17:04;1.60;99.90
42095;DHT22;27753;55.724;37.612;2024-02-04T14:19:30;1.40;99.90
42095;DHT22;27753;55.724;37.612;2024-02-04T14:21:56;1.40;99.90
42095;DHT22;27753;55.724;37.612;2024-02-04T14:24:22;1.40;99.90
42095;DHT22;27753;55.724;37.612;2024-02-04T14:26:48;1.50;99.90
42095;DHT22;27753;55.724;37.612;2024-02-04T14:29:14;1.50;99.90
42095;DHT22;27753;55.724;37.612;2024-02-04T14:31:39;1.50;99.90
42095;DHT22;27753;55.724;37.612;2024-02-04T14:34:05;1.40;99.90
42095;DHT22;27753;55.724;37.612;2024-02-04T14:36:31;1.40;99.90
42095;DHT22;27753;55.724;37.612;2024-02-04T14:38:57;1.30;99.90
42095;DHT22;27753;55.724;37.612;2024-02-04T14:41:23;1.30;99.90
42095;DHT22;27753;55.724;37.612;2024-02-04T14:43:49;1.30;99.90
42095;DHT22;27753;55.724;37.612;2024-02-04T14:46:15;1.40;99.90
42095;DHT22;27753;55.724;37.612;2024-02-04T14:48:41;1.40;99.90
42095;DHT22;27753;55.724;37.612;2024-02-04T14:51:06;1.50;99.90
42095;DHT22;27753;55.724;37.612;2024-02-04T14:53:32;1.60;99.90
42095;DHT22;27753;55.724;37.612;2024-02-04T14:55:58;1.60;99.90
42095;DHT22;27753;55.724;37.612;2024-02-04T14:58:24;1.70;99.90
42095;DHT22;27753;55.724;37.612;2024-02-04T15:00:50;1.70;99.90
42095;DHT22;27753;55.724;37.612;2024-02-04T15:03:16;1.80;99.90
42095;DHT22;27753;55.724;37.612;2024-02-04T15:05:42;1.80;99.90
42095;DHT22;27753;55.724;37.612;2024-02-04T15:08:08;1.90;99.90
42095;DHT22;27753;55.724;37.612;2024-02-04T15:10:34;2.00;99.90
42095;DHT22;27753;55.724;37.612;2024-02-04T15:13:00;2.00;99.90
42095;DHT22;27753;55.724;37.612;2024-02-04T15:15:27;2.10;99.90
42095;DHT22;27753;55.724;37.612;2024-02-04T15:17:53;2.10;99.90
42095;DHT22;27753;55.724;37.612;2024-02-04T15:20:19;2.10;99.90
42095;DHT22;27753;55.724;37.612;2024-02-04T15:22:47;2.10;99.90
42095;DHT22;27753;55.724;37.612;2024-02-04T15:25:13;2.00;99.90
42095;DHT22;27753;55.724;37.612;2024-02-04T15:27:42;2.00;99.90
42095;DHT22;27753;55.724;37.612;2024-02-04T15:30:10;1.90;99.90
42095;DHT22;27753;55.724;37.612;2024-02-04T15:32:37;1.90;99.90
42095;DHT22;27753;55.724;37.612;2024-02-04T15:35:03;1.80;99.90
42095;DHT22;27753;55.724;37.612;2024-02-04T15:37:30;1.80;99.90
42095;DHT22;27753;55.724;37.612;2024-02-04T15:39:59;1.80;99.90
42095;DHT22;27753;55.724;37.612;2024-02-04T15:42:26;1.70;99.90
42095;DHT22;27753;55.724;37.612;2024-02-04T15:44:52;1.70;99.90
42095;DHT22;27753;55.724;37.612;2024-02-04T15:47:21;1.70;99.90
42095;DHT22;27753;55.724;37.612;2024-02-04T15:49:48;1.70;99.90
42095;DHT22;27753;55.724;37.612;2024-02-04T15:52:14;1.70;99.90
42095;DHT22;27753;55.724;37.612;2024-02-04T15:54:41;1.70;99.90
42095;DHT22;27753;55.724;37.612;2024-02-04T15:57:09;1.60;99.90